createdAt,value
2022-11-02T00:00:25.315Z,77.44
2022-11-02T00:01:25.377Z,77.50
2022-11-02T00:02:25.415Z,77.63
2022-11-02T00:03:25.287Z,77.53
2022-11-02T00:04:25.261Z,77.41
2022-11-02T00:05:25.261Z,77.32
2022-11-02T00:06:25.235Z,77.19
2022-11-02T00:07:25.243Z,77.19
2022-11-02T00:08:25.282Z,77.04
2022-11-02T00:09:25.204Z,76.99
2022-11-02T00:10:25.184Z,76.93
2022-11-02T00:11:25.176Z,76.80
2022-11-02T00:12:25.156Z,76.65
2022-11-02T00:13:25.169Z,76.39
2022-11-02T00:14:25.144Z,76.00
2022-11-02T00:15:25.136Z,75.51
2022-11-02T00:16:25.132Z,75.14
2022-11-02T00:17:25.090Z,75.12
2022-11-02T00:18:25.097Z,75.14
2022-11-02T00:19:25.065Z,75.01
2022-11-02T00:20:25.091Z,74.86
2022-11-02T00:21:25.087Z,75.02
2022-11-02T00:22:25.028Z,75.27
2022-11-02T00:23:25.025Z,75.51
2022-11-02T00:24:25.032Z,75.74
2022-11-02T00:25:24.993Z,75.96
2022-11-02T00:26:25.007Z,76.17
2022-11-02T00:27:25.013Z,76.24
2022-11-02T00:28:24.951Z,76.28
2022-11-02T00:29:26.940Z,76.26
2022-11-02T00:30:24.942Z,76.34
2022-11-02T00:31:24.908Z,76.47
2022-11-02T00:32:24.903Z,76.63
2022-11-02T00:33:24.883Z,76.71
2022-11-02T00:34:24.879Z,76.83
2022-11-02T00:35:24.862Z,76.89
2022-11-02T00:36:24.848Z,76.94
2022-11-02T00:37:24.890Z,77.10
2022-11-02T00:38:24.844Z,77.18
2022-11-02T00:39:24.815Z,77.26
2022-11-02T00:40:24.812Z,77.31
2022-11-02T00:41:24.788Z,77.38
2022-11-02T00:42:24.770Z,77.45
2022-11-02T00:43:24.743Z,77.42
2022-11-02T00:44:24.752Z,77.43
2022-11-02T00:45:24.719Z,77.39
2022-11-02T00:46:24.735Z,77.25
2022-11-02T00:47:24.708Z,76.99
2022-11-02T00:48:24.712Z,76.73
2022-11-02T00:49:24.673Z,76.53
2022-11-02T00:50:24.662Z,76.34
2022-11-02T00:51:24.639Z,76.13
2022-11-02T00:52:24.634Z,75.96
2022-11-02T00:53:24.620Z,75.77
2022-11-02T00:54:27.662Z,75.75
2022-11-02T00:55:24.596Z,75.74
2022-11-02T00:56:24.610Z,75.68
2022-11-02T00:57:24.566Z,75.50
2022-11-02T00:58:24.571Z,75.40
2022-11-02T00:59:24.546Z,75.22
2022-11-02T01:00:24.540Z,75.15
2022-11-02T01:01:24.643Z,74.95
2022-11-02T01:02:24.651Z,74.89
2022-11-02T01:03:24.493Z,74.76
2022-11-02T01:04:24.481Z,74.51
2022-11-02T01:05:24.460Z,74.40
2022-11-02T01:06:24.451Z,74.29
2022-11-02T01:07:24.433Z,74.06
2022-11-02T01:08:24.425Z,73.89
2022-11-02T01:09:24.418Z,73.87
2022-11-02T01:10:24.410Z,73.78
2022-11-02T01:11:24.383Z,73.53
2022-11-02T01:12:24.397Z,73.47
2022-11-02T01:13:24.353Z,72.85
2022-11-02T01:14:24.354Z,72.67
2022-11-02T01:15:24.334Z,72.84
2022-11-02T01:16:24.318Z,73.12
2022-11-02T01:17:24.337Z,73.53
2022-11-02T01:18:24.302Z,73.61
2022-11-02T01:19:24.282Z,73.61
2022-11-02T01:20:24.275Z,73.53
2022-11-02T01:21:24.251Z,73.67
2022-11-02T01:22:24.243Z,73.72
2022-11-02T01:23:24.231Z,73.76
2022-11-02T01:24:24.227Z,73.71
2022-11-02T01:25:24.206Z,73.86
2022-11-02T01:26:24.207Z,73.82
2022-11-02T01:27:24.186Z,73.81
2022-11-02T01:28:24.163Z,73.69
2022-11-02T01:29:24.144Z,73.56
2022-11-02T01:30:24.142Z,73.51
2022-11-02T01:31:24.157Z,73.28
2022-11-02T01:32:24.108Z,73.35
2022-11-02T01:33:24.098Z,73.26
2022-11-02T01:34:24.128Z,73.38
2022-11-02T01:35:24.079Z,73.47
2022-11-02T01:36:24.187Z,73.43
2022-11-02T01:37:24.042Z,73.47
2022-11-02T01:38:24.036Z,73.56
2022-11-02T01:39:24.031Z,73.54
2022-11-02T01:40:24.002Z,73.63
2022-11-02T01:41:24.038Z,73.41
2022-11-02T01:42:24.019Z,73.33
2022-11-02T01:43:23.969Z,73.19
2022-11-02T01:44:23.972Z,73.17
2022-11-02T01:45:23.944Z,73.13
2022-11-02T01:46:23.937Z,73.00
2022-11-02T01:47:23.953Z,72.78
2022-11-02T01:48:23.908Z,72.64
2022-11-02T01:49:23.915Z,72.75
2022-11-02T01:50:23.892Z,72.86
2022-11-02T01:51:23.867Z,73.09
2022-11-02T01:52:23.875Z,73.05
2022-11-02T01:53:23.857Z,72.48
2022-11-02T01:54:23.904Z,72.39
2022-11-02T01:55:23.833Z,72.48
2022-11-02T01:57:23.785Z,72.39
2022-11-02T01:58:23.813Z,72.42
2022-11-02T01:59:23.806Z,72.66
2022-11-02T02:00:23.760Z,72.90
2022-11-02T02:01:23.898Z,73.27
2022-11-02T02:02:23.816Z,73.21
2022-11-02T02:03:23.743Z,73.09
2022-11-02T02:04:23.708Z,72.92
2022-11-02T02:05:23.703Z,72.92
2022-11-02T02:06:23.726Z,72.85
2022-11-02T02:07:23.677Z,72.96
2022-11-02T02:08:23.658Z,72.81
2022-11-02T02:09:23.638Z,72.81
2022-11-02T02:10:23.631Z,72.90
2022-11-02T02:11:23.629Z,72.83
2022-11-02T02:12:23.605Z,72.86
2022-11-02T02:13:23.581Z,73.05
2022-11-02T02:14:23.577Z,73.10
2022-11-02T02:15:23.559Z,73.14
2022-11-02T02:16:23.557Z,73.15
2022-11-02T02:17:23.567Z,73.30
2022-11-02T02:18:23.517Z,73.41
2022-11-02T02:19:23.512Z,73.25
2022-11-02T02:20:23.513Z,73.23
2022-11-02T02:21:23.510Z,73.11
2022-11-02T02:22:23.485Z,73.06
2022-11-02T02:23:23.483Z,73.04
2022-11-02T02:24:23.481Z,73.05
2022-11-02T02:25:23.497Z,73.22
2022-11-02T02:26:23.436Z,73.45
2022-11-02T02:27:23.427Z,73.77
2022-11-02T02:28:23.399Z,73.87
2022-11-02T02:29:23.384Z,73.99
2022-11-02T02:30:23.387Z,74.09
2022-11-02T02:31:23.366Z,74.44
2022-11-02T02:32:23.351Z,74.66
2022-11-02T02:33:23.380Z,74.76
2022-11-02T02:34:23.321Z,74.63
2022-11-02T02:35:23.326Z,74.44
2022-11-02T02:36:23.290Z,74.35
2022-11-02T02:37:23.280Z,74.33
2022-11-02T02:38:23.274Z,74.45
2022-11-02T02:39:23.253Z,74.50
2022-11-02T02:40:23.259Z,74.66
2022-11-02T02:41:23.233Z,74.83
2022-11-02T02:42:23.221Z,74.99
2022-11-02T02:43:23.202Z,74.91
2022-11-02T02:44:23.198Z,74.85
2022-11-02T02:45:23.181Z,75.10
2022-11-02T02:46:23.188Z,75.15
2022-11-02T02:47:23.153Z,75.17
2022-11-02T02:48:23.165Z,75.30
2022-11-02T02:49:23.126Z,75.31
2022-11-02T02:50:23.110Z,75.34
2022-11-02T02:51:23.121Z,75.25
2022-11-02T02:52:23.080Z,75.03
2022-11-02T02:53:23.074Z,74.99
2022-11-02T02:54:23.059Z,74.96
2022-11-02T02:55:23.062Z,74.93
2022-11-02T02:56:23.043Z,74.86
2022-11-02T02:57:23.021Z,74.71
2022-11-02T02:58:23.032Z,74.90
2022-11-02T02:59:22.990Z,74.99
2022-11-02T03:00:22.987Z,74.98
2022-11-02T03:01:23.099Z,74.97
2022-11-02T03:02:23.116Z,75.00
2022-11-02T03:03:22.972Z,75.01
2022-11-02T03:04:22.930Z,74.97
2022-11-02T03:05:22.953Z,75.05
2022-11-02T03:06:22.906Z,75.01
2022-11-02T03:07:22.898Z,75.12
2022-11-02T03:08:22.900Z,75.20
2022-11-02T03:09:22.876Z,75.34
2022-11-02T03:10:22.855Z,75.56
2022-11-02T03:11:22.868Z,75.63
2022-11-02T03:12:22.825Z,75.70
2022-11-02T03:13:22.821Z,75.81
2022-11-02T03:14:22.801Z,75.95
2022-11-02T03:15:22.783Z,76.01
2022-11-02T03:16:22.788Z,75.99
2022-11-02T03:17:22.783Z,75.99
2022-11-02T03:18:22.761Z,76.02
2022-11-02T03:19:22.731Z,76.01
2022-11-02T03:20:22.724Z,76.01
2022-11-02T03:21:22.708Z,76.14
2022-11-02T03:22:22.701Z,76.24
2022-11-02T03:23:22.684Z,76.27
2022-11-02T03:24:22.684Z,76.27
2022-11-02T03:25:22.678Z,76.25
2022-11-02T03:26:22.654Z,76.31
2022-11-02T03:27:22.663Z,76.38
2022-11-02T03:28:22.627Z,76.47
2022-11-02T03:29:22.651Z,76.59
2022-11-02T03:30:22.601Z,76.59
2022-11-02T03:31:22.591Z,76.64
2022-11-02T03:32:22.579Z,76.73
2022-11-02T03:33:22.571Z,76.71
2022-11-02T03:34:22.561Z,76.64
2022-11-02T03:35:22.538Z,76.60
2022-11-02T03:36:22.564Z,76.72
2022-11-02T03:37:22.519Z,76.75
2022-11-02T03:38:22.522Z,76.71
2022-11-02T03:39:22.497Z,76.62
2022-11-02T03:40:22.480Z,76.58
2022-11-02T03:41:22.457Z,76.60
2022-11-02T03:42:22.452Z,76.58
2022-11-02T03:43:22.427Z,76.54
2022-11-02T03:44:22.415Z,76.39
2022-11-02T03:45:22.404Z,76.25
2022-11-02T03:46:22.404Z,76.31
2022-11-02T03:47:22.395Z,76.41
2022-11-02T03:48:22.377Z,76.44
2022-11-02T03:49:22.350Z,76.53
2022-11-02T03:50:22.343Z,76.51
2022-11-02T03:51:22.366Z,76.54
2022-11-02T03:52:22.310Z,76.53
2022-11-02T03:53:22.324Z,76.63
2022-11-02T03:54:22.292Z,76.76
2022-11-02T03:55:22.272Z,76.86
2022-11-02T03:56:22.265Z,76.94
2022-11-02T03:57:22.275Z,76.93
2022-11-02T03:58:22.239Z,76.97
2022-11-02T03:59:22.225Z,77.13
2022-11-02T04:00:22.211Z,76.94
2022-11-02T04:01:22.312Z,76.85
2022-11-02T04:02:22.382Z,76.85
2022-11-02T04:03:22.176Z,76.87
2022-11-02T04:04:22.168Z,76.96
2022-11-02T04:05:22.150Z,77.01
2022-11-02T04:06:22.141Z,76.94
2022-11-02T04:07:22.144Z,76.95
2022-11-02T04:08:22.106Z,76.91
2022-11-02T04:09:22.151Z,76.97
2022-11-02T04:10:22.078Z,77.05
2022-11-02T04:11:22.097Z,77.03
2022-11-02T04:12:22.055Z,76.86
2022-11-02T04:13:22.050Z,76.88
2022-11-02T04:14:22.047Z,76.76
2022-11-02T04:15:22.021Z,76.69
2022-11-02T04:16:26.757Z,76.80
2022-11-02T04:17:22.058Z,76.92
2022-11-02T04:18:21.993Z,76.82
2022-11-02T04:19:21.971Z,76.84
2022-11-02T04:20:21.964Z,76.68
2022-11-02T04:21:21.962Z,76.64
2022-11-02T04:22:21.936Z,76.64
2022-11-02T04:23:21.957Z,76.77
2022-11-02T04:24:21.926Z,76.81
2022-11-02T04:25:21.903Z,76.81
2022-11-02T04:26:21.877Z,76.69
2022-11-02T04:27:21.869Z,76.67
2022-11-02T04:28:21.858Z,76.66
2022-11-02T04:29:21.851Z,76.79
2022-11-02T04:30:21.899Z,76.77
2022-11-02T04:31:21.817Z,76.88
2022-11-02T04:32:21.801Z,76.90
2022-11-02T04:33:21.804Z,76.84
2022-11-02T04:34:21.774Z,76.73
2022-11-02T04:35:21.769Z,76.84
2022-11-02T04:36:21.756Z,76.80
2022-11-02T04:37:21.795Z,76.85
2022-11-02T04:38:21.738Z,76.69
2022-11-02T04:39:21.714Z,76.77
2022-11-02T04:40:21.703Z,76.80
2022-11-02T04:41:21.687Z,76.94
2022-11-02T04:42:21.697Z,77.14
2022-11-02T04:43:21.682Z,77.22
2022-11-02T04:44:24.856Z,77.33
2022-11-02T04:45:21.652Z,77.38
2022-11-02T04:46:21.620Z,77.50
2022-11-02T04:47:21.613Z,77.64
2022-11-02T04:48:21.591Z,77.73
2022-11-02T04:49:21.601Z,77.94
2022-11-02T04:50:21.574Z,77.97
2022-11-02T04:51:21.560Z,78.05
2022-11-02T04:52:21.549Z,78.09
2022-11-02T04:53:21.539Z,78.13
2022-11-02T04:54:21.540Z,78.22
2022-11-02T04:55:21.542Z,78.20
2022-11-02T04:56:21.495Z,78.23
2022-11-02T04:57:21.488Z,78.30
2022-11-02T04:58:21.479Z,78.35
2022-11-02T04:59:21.456Z,78.45
2022-11-02T05:00:21.446Z,78.50
2022-11-02T05:01:21.608Z,78.55
2022-11-02T05:02:21.643Z,78.64
2022-11-02T05:03:21.426Z,78.64
2022-11-02T05:04:21.387Z,78.62
2022-11-02T05:05:21.379Z,78.58
2022-11-02T05:06:21.359Z,78.53
2022-11-02T05:07:21.356Z,78.46
2022-11-02T05:08:21.347Z,78.48
2022-11-02T05:09:21.350Z,78.53
2022-11-02T05:10:21.313Z,78.58
2022-11-02T05:11:21.318Z,78.60
2022-11-02T05:12:24.178Z,78.74
2022-11-02T05:13:21.281Z,78.85
2022-11-02T05:14:21.274Z,78.83
2022-11-02T05:15:21.249Z,78.70
2022-11-02T05:16:21.257Z,78.70
2022-11-02T05:17:21.230Z,78.77
2022-11-02T05:19:21.214Z,78.53
2022-11-02T05:20:21.191Z,78.48
2022-11-02T05:21:21.176Z,78.26
2022-11-02T05:22:21.158Z,78.18
2022-11-02T05:23:21.145Z,78.23
2022-11-02T05:24:21.165Z,78.17
2022-11-02T05:25:21.141Z,78.24
2022-11-02T05:26:21.125Z,78.28
2022-11-02T05:27:21.103Z,78.18
2022-11-02T05:28:21.089Z,78.09
2022-11-02T05:29:21.095Z,77.93
2022-11-02T05:30:21.078Z,77.93
2022-11-02T05:31:21.074Z,77.92
2022-11-02T05:32:21.035Z,77.82
2022-11-02T05:33:21.043Z,77.89
2022-11-02T05:34:21.012Z,77.68
2022-11-02T05:35:21.004Z,77.70
2022-11-02T05:36:21.017Z,77.68
2022-11-02T05:37:20.992Z,77.74
2022-11-02T05:38:20.952Z,77.70
2022-11-02T05:39:20.958Z,77.47
2022-11-02T05:40:20.932Z,77.45
2022-11-02T05:41:20.927Z,77.46
2022-11-02T05:42:20.921Z,77.47
2022-11-02T05:43:20.894Z,77.47
2022-11-02T05:44:20.881Z,77.65
2022-11-02T05:45:24.494Z,77.60
2022-11-02T05:46:20.867Z,77.68
2022-11-02T05:47:20.869Z,77.80
2022-11-02T05:48:20.846Z,77.80
2022-11-02T05:49:20.815Z,77.74
2022-11-02T05:50:20.805Z,77.42
2022-11-02T05:51:20.790Z,77.35
2022-11-02T05:52:20.790Z,77.45
2022-11-02T05:53:20.803Z,77.62
2022-11-02T05:54:20.765Z,77.68
2022-11-02T05:55:20.781Z,77.78
2022-11-02T05:56:24.804Z,77.73
2022-11-02T05:57:20.708Z,77.67
2022-11-02T05:58:20.701Z,77.48
2022-11-02T05:59:20.705Z,77.31
2022-11-02T06:00:20.703Z,77.11
2022-11-02T06:01:20.717Z,77.16
2022-11-02T06:02:23.277Z,77.10
2022-11-02T06:03:20.644Z,77.08
2022-11-02T06:04:20.750Z,76.52
2022-11-02T06:05:20.837Z,76.47
2022-11-02T06:06:20.600Z,76.61
2022-11-02T06:07:20.583Z,76.67
2022-11-02T06:08:20.576Z,76.59
2022-11-02T06:09:20.551Z,76.24
2022-11-02T06:10:20.534Z,76.30
2022-11-02T06:11:20.577Z,76.29
2022-11-02T06:12:20.514Z,76.31
2022-11-02T06:13:20.499Z,76.27
2022-11-02T06:14:20.510Z,76.33
2022-11-02T06:15:20.495Z,76.23
2022-11-02T06:16:23.319Z,76.15
2022-11-02T06:17:20.448Z,76.08
2022-11-02T06:18:20.446Z,76.17
2022-11-02T06:19:20.428Z,76.25
2022-11-02T06:20:20.416Z,76.27
2022-11-02T06:21:20.409Z,76.40
2022-11-02T06:22:20.378Z,76.55
2022-11-02T06:23:20.368Z,76.71
2022-11-02T06:24:20.365Z,76.61
2022-11-02T06:25:20.344Z,76.63
2022-11-02T06:26:20.352Z,76.75
2022-11-02T06:27:20.337Z,76.91
2022-11-02T06:28:20.314Z,77.17
2022-11-02T06:29:20.294Z,77.08
2022-11-02T06:30:20.274Z,76.98
2022-11-02T06:31:20.283Z,77.03
2022-11-02T06:32:20.259Z,76.78
2022-11-02T06:33:20.287Z,76.85
2022-11-02T06:34:20.232Z,76.73
2022-11-02T06:35:20.220Z,76.63
2022-11-02T06:36:20.209Z,76.65
2022-11-02T06:37:20.192Z,76.56
2022-11-02T06:38:20.203Z,76.64
2022-11-02T06:39:20.166Z,76.57
2022-11-02T06:40:22.585Z,76.46
2022-11-02T06:41:20.157Z,76.47
2022-11-02T06:42:20.121Z,76.85
2022-11-02T06:43:20.753Z,77.30
2022-11-02T06:44:20.932Z,77.17
2022-11-02T06:45:20.105Z,76.45
2022-11-02T06:46:20.068Z,75.99
2022-11-02T06:47:20.083Z,76.04
2022-11-02T06:48:20.037Z,76.00
2022-11-02T06:49:20.064Z,75.97
2022-11-02T06:50:20.050Z,75.87
2022-11-02T06:51:20.051Z,75.51
2022-11-02T06:52:19.994Z,75.52
2022-11-02T06:53:19.977Z,75.57
2022-11-02T06:54:19.972Z,75.61
2022-11-02T06:55:19.963Z,75.62
2022-11-02T06:56:19.976Z,75.66
2022-11-02T06:57:19.956Z,75.58
2022-11-02T06:58:19.943Z,75.73
2022-11-02T06:59:19.902Z,75.82
2022-11-02T07:00:22.777Z,76.01
2022-11-02T07:01:20.031Z,76.16
2022-11-02T07:02:19.962Z,76.11
2022-11-02T07:03:19.871Z,76.10
2022-11-02T07:04:19.842Z,76.23
2022-11-02T07:05:19.826Z,76.21
2022-11-02T07:06:19.814Z,75.96
2022-11-02T07:07:19.812Z,76.01
2022-11-02T07:08:19.791Z,76.09
2022-11-02T07:09:19.779Z,76.20
2022-11-02T07:10:19.763Z,76.10
2022-11-02T07:11:19.754Z,75.73
2022-11-02T07:12:23.059Z,75.82
2022-11-02T07:13:19.729Z,75.81
2022-11-02T07:14:19.715Z,75.81
2022-11-02T07:15:19.697Z,75.85
2022-11-02T07:16:19.693Z,75.90
2022-11-02T07:17:19.684Z,75.92
2022-11-02T07:18:19.668Z,75.88
2022-11-02T07:19:19.649Z,75.88
2022-11-02T07:20:19.634Z,75.85
2022-11-02T07:22:19.612Z,75.63
2022-11-02T07:23:19.632Z,75.43
2022-11-02T07:24:19.618Z,75.41
2022-11-02T07:25:19.584Z,75.33
2022-11-02T07:26:19.560Z,75.13
2022-11-02T07:27:19.543Z,74.80
2022-11-02T07:28:19.525Z,74.67
2022-11-02T07:29:19.528Z,74.61
2022-11-02T07:30:19.510Z,74.62
2022-11-02T07:31:19.541Z,74.47
2022-11-02T07:32:19.477Z,74.47
2022-11-02T07:33:19.470Z,74.57
2022-11-02T07:34:19.451Z,74.46
2022-11-02T07:35:19.442Z,74.44
2022-11-02T07:36:19.423Z,74.38
2022-11-02T07:37:19.421Z,74.07
2022-11-02T07:38:19.410Z,74.11
2022-11-02T07:39:19.410Z,73.62
2022-11-02T07:40:19.375Z,73.72
2022-11-02T07:41:19.367Z,73.69
2022-11-02T07:42:19.386Z,73.57
2022-11-02T07:43:19.355Z,73.68
2022-11-02T07:44:19.344Z,73.76
2022-11-02T07:45:19.311Z,73.80
2022-11-02T07:46:19.310Z,73.68
2022-11-02T07:47:19.300Z,73.52
2022-11-02T07:48:19.275Z,73.57
2022-11-02T07:49:21.594Z,73.62
2022-11-02T07:50:19.251Z,73.28
2022-11-02T07:51:19.238Z,73.02
2022-11-02T07:52:19.229Z,73.07
2022-11-02T07:53:19.247Z,73.19
2022-11-02T07:54:19.194Z,72.86
2022-11-02T07:55:19.185Z,72.87
2022-11-02T07:56:19.185Z,73.02
2022-11-02T07:57:19.164Z,72.91
2022-11-02T07:58:19.159Z,72.68
2022-11-02T07:59:19.139Z,72.53
2022-11-02T08:00:19.124Z,72.43
2022-11-02T08:01:19.180Z,72.41
2022-11-02T08:02:19.115Z,72.49
2022-11-02T08:03:19.143Z,72.43
2022-11-02T08:04:19.151Z,72.56
2022-11-02T08:05:19.053Z,72.54
2022-11-02T08:06:19.038Z,72.48
2022-11-02T08:07:19.023Z,72.42
2022-11-02T08:08:19.030Z,72.23
2022-11-02T08:09:19.000Z,72.27
2022-11-02T08:10:18.995Z,72.30
2022-11-02T08:11:18.968Z,72.20
2022-11-02T08:12:18.967Z,72.43
2022-11-02T08:13:18.958Z,72.24
2022-11-02T08:14:18.932Z,72.33
2022-11-02T08:15:18.922Z,72.27
2022-11-02T08:16:18.906Z,72.24
2022-11-02T08:17:18.890Z,72.24
2022-11-02T08:18:18.879Z,72.09
2022-11-02T08:19:18.888Z,72.06
2022-11-02T08:20:18.838Z,72.03
2022-11-02T08:21:18.839Z,72.07
2022-11-02T08:22:18.821Z,71.99
2022-11-02T08:23:18.812Z,71.47
2022-11-02T08:24:18.792Z,71.16
2022-11-02T08:25:18.777Z,71.07
2022-11-02T08:26:18.760Z,71.00
2022-11-02T08:27:18.742Z,71.10
2022-11-02T08:28:18.741Z,70.84
2022-11-02T08:29:18.734Z,70.03
2022-11-02T08:30:18.726Z,70.11
2022-11-02T08:31:18.725Z,70.27
2022-11-02T08:32:18.676Z,69.93
2022-11-02T08:33:18.673Z,69.96
2022-11-02T08:34:18.667Z,70.14
2022-11-02T08:35:18.640Z,70.05
2022-11-02T08:36:18.625Z,69.01
2022-11-02T08:37:18.614Z,68.95
2022-11-02T08:38:18.600Z,69.08
2022-11-02T08:39:19.225Z,68.76
2022-11-02T08:40:18.588Z,68.14
2022-11-02T08:41:18.574Z,68.41
2022-11-02T08:42:18.547Z,68.42
2022-11-02T08:43:18.528Z,68.55
2022-11-02T08:44:18.531Z,67.75
2022-11-02T08:45:18.494Z,67.47
2022-11-02T08:46:18.554Z,67.68
2022-11-02T08:47:18.473Z,67.49
2022-11-02T08:48:18.480Z,67.40
2022-11-02T08:49:18.440Z,67.44
2022-11-02T08:50:18.442Z,67.16
2022-11-02T08:51:18.414Z,67.08
2022-11-02T08:52:18.409Z,66.80
2022-11-02T08:53:18.391Z,66.51
2022-11-02T08:54:18.377Z,66.83
2022-11-02T08:55:18.370Z,66.97
2022-11-02T08:56:18.355Z,66.81
2022-11-02T08:57:18.341Z,65.92
2022-11-02T08:58:18.342Z,65.55
2022-11-02T08:59:18.298Z,65.67
2022-11-02T09:00:18.310Z,65.36
2022-11-02T09:01:18.333Z,65.35
2022-11-02T09:02:18.413Z,65.33
2022-11-02T09:03:23.425Z,65.37
2022-11-02T09:04:18.264Z,65.60
2022-11-02T09:05:18.226Z,65.08
2022-11-02T09:06:18.220Z,64.72
2022-11-02T09:07:18.207Z,64.72
2022-11-02T09:08:18.243Z,64.72
2022-11-02T09:09:18.165Z,64.53
2022-11-02T09:10:18.170Z,64.48
2022-11-02T09:11:18.148Z,64.40
2022-11-02T09:12:18.139Z,63.91
2022-11-02T09:13:18.118Z,63.98
2022-11-02T09:14:18.211Z,63.80
2022-11-02T09:15:18.103Z,63.20
2022-11-02T09:16:18.079Z,63.45
2022-11-02T09:17:18.060Z,62.99
2022-11-02T09:18:18.056Z,62.16
2022-11-02T09:19:18.047Z,61.79
2022-11-02T09:20:18.034Z,61.12
2022-11-02T09:21:18.016Z,61.48
2022-11-02T09:22:18.008Z,61.02
2022-11-02T09:23:17.979Z,60.96
2022-11-02T09:24:18.014Z,60.39
2022-11-02T09:25:17.958Z,60.21
2022-11-02T09:26:17.959Z,60.18
2022-11-02T09:27:17.928Z,60.20
2022-11-02T09:28:17.919Z,60.23
2022-11-02T09:29:17.965Z,60.31
2022-11-02T09:30:17.893Z,59.55
2022-11-02T09:31:17.902Z,59.64
2022-11-02T09:32:17.878Z,59.64
2022-11-02T09:33:17.859Z,59.84
2022-11-02T09:34:17.840Z,59.95
2022-11-02T09:35:17.833Z,60.01
2022-11-02T09:36:17.815Z,60.16
2022-11-02T09:37:17.807Z,59.54
2022-11-02T09:38:17.794Z,59.16
2022-11-02T09:39:17.783Z,59.36
2022-11-02T09:40:17.769Z,59.32
2022-11-02T09:41:17.763Z,59.34
2022-11-02T09:42:17.749Z,59.37
2022-11-02T09:43:17.728Z,59.37
2022-11-02T09:44:17.730Z,59.33
2022-11-02T09:45:17.697Z,59.68
2022-11-02T09:46:17.729Z,59.56
2022-11-02T09:48:03.108Z,59.87
2022-11-02T09:48:26.881Z,59.90
2022-11-02T09:49:17.657Z,59.87
2022-11-02T09:50:17.675Z,59.87
2022-11-02T09:51:17.623Z,60.15
2022-11-02T09:52:17.618Z,60.13
2022-11-02T09:53:17.599Z,60.10
2022-11-02T09:54:18.148Z,60.11
2022-11-02T09:55:17.596Z,60.19
2022-11-02T09:56:17.558Z,60.24
2022-11-02T09:57:17.548Z,60.30
2022-11-02T09:58:17.548Z,59.99
2022-11-02T09:59:17.522Z,60.09
2022-11-02T10:00:17.502Z,59.82
2022-11-02T10:01:17.543Z,60.07
2022-11-02T10:02:17.506Z,59.65
2022-11-02T10:03:17.472Z,59.50
2022-11-02T10:04:17.459Z,59.87
2022-11-02T10:05:17.436Z,59.46
2022-11-02T10:06:17.433Z,59.62
2022-11-02T10:07:17.422Z,59.81
2022-11-02T10:08:17.403Z,59.90
2022-11-02T10:09:17.380Z,60.01
2022-11-02T10:10:17.378Z,60.35
2022-11-02T10:11:17.370Z,60.47
2022-11-02T10:12:17.351Z,60.55
2022-11-02T10:13:17.332Z,60.38
2022-11-02T10:14:17.328Z,60.62
2022-11-02T10:15:17.316Z,60.69
2022-11-02T10:16:17.290Z,60.49
2022-11-02T10:17:17.280Z,60.52
2022-11-02T10:18:17.268Z,60.33
2022-11-02T10:19:17.257Z,60.44
2022-11-02T10:20:17.249Z,60.55
2022-11-02T10:21:17.226Z,60.68
2022-11-02T10:22:17.212Z,60.44
2022-11-02T10:23:17.204Z,60.50
2022-11-02T10:24:17.195Z,60.10
2022-11-02T10:25:17.177Z,59.95
2022-11-02T10:26:17.163Z,59.98
2022-11-02T10:27:17.167Z,59.94
2022-11-02T10:28:17.215Z,60.09
2022-11-02T10:29:17.122Z,59.84
2022-11-02T10:30:17.110Z,59.96
2022-11-02T10:31:17.099Z,59.69
2022-11-02T10:32:17.082Z,59.74
2022-11-02T10:33:17.060Z,59.70
2022-11-02T10:34:17.081Z,59.79
2022-11-02T10:35:36.762Z,59.60
2022-11-02T10:36:18.526Z,59.64
2022-11-02T10:37:17.030Z,59.51
2022-11-02T10:38:17.422Z,59.48
2022-11-02T10:39:16.994Z,59.24
2022-11-02T10:40:16.987Z,59.39
2022-11-02T10:41:16.960Z,59.43
2022-11-02T10:42:16.952Z,59.27
2022-11-02T10:43:16.946Z,59.55
2022-11-02T10:44:16.937Z,59.32
2022-11-02T10:45:16.917Z,58.61
2022-11-02T10:46:16.911Z,58.36
2022-11-02T10:47:16.903Z,58.11
2022-11-02T10:48:16.868Z,58.02
2022-11-02T10:49:16.864Z,57.99
2022-11-02T10:50:16.887Z,58.05
2022-11-02T10:51:16.863Z,57.89
2022-11-02T10:52:16.840Z,57.80
2022-11-02T10:54:20.583Z,57.55
2022-11-02T10:55:16.801Z,57.77
2022-11-02T10:56:16.775Z,57.68
2022-11-02T10:57:16.754Z,57.44
2022-11-02T10:58:16.739Z,57.19
2022-11-02T10:59:16.725Z,57.40
2022-11-02T11:00:16.733Z,57.17
2022-11-02T11:01:16.859Z,57.13
2022-11-02T11:02:16.695Z,57.04
2022-11-02T11:03:16.680Z,56.92
2022-11-02T11:04:16.660Z,56.86
2022-11-02T11:05:16.651Z,56.81
2022-11-02T11:06:16.651Z,56.86
2022-11-02T11:07:16.627Z,57.16
2022-11-02T11:08:16.608Z,57.52
2022-11-02T11:09:16.610Z,57.35
2022-11-02T11:10:16.586Z,57.51
2022-11-02T11:11:16.579Z,57.27
2022-11-02T11:12:16.582Z,57.21
2022-11-02T11:16:18.659Z,56.55
2022-11-02T11:20:16.468Z,57.02
2022-11-02T11:21:16.442Z,57.02
2022-11-02T11:22:16.428Z,57.33
2022-11-02T11:23:16.418Z,57.61
2022-11-02T11:24:16.437Z,57.72
2022-11-02T11:25:16.408Z,57.32
2022-11-02T11:26:16.390Z,57.50
2022-11-02T11:27:16.360Z,57.46
2022-11-02T11:28:16.360Z,57.30
2022-11-02T11:29:16.341Z,57.37
2022-11-02T11:30:28.319Z,57.44
2022-11-02T11:31:16.332Z,57.64
2022-11-02T11:32:16.295Z,57.72
2022-11-02T11:33:16.280Z,57.79
2022-11-02T11:34:16.277Z,57.06
2022-11-02T11:35:16.271Z,56.48
2022-11-02T11:36:16.342Z,56.75
2022-11-02T11:37:16.228Z,57.03
2022-11-02T11:38:16.261Z,56.99
2022-11-02T11:39:16.197Z,57.08
2022-11-02T11:40:16.219Z,56.68
2022-11-02T11:41:16.207Z,56.75
2022-11-02T11:42:16.170Z,56.57
2022-11-02T11:43:16.153Z,56.52
2022-11-02T11:44:16.141Z,56.39
2022-11-02T11:45:16.127Z,56.55
2022-11-02T11:46:16.160Z,56.55
2022-11-02T11:47:16.119Z,56.61
2022-11-02T11:48:16.081Z,56.87
2022-11-02T11:49:16.067Z,56.81
2022-11-02T11:50:22.801Z,56.93
2022-11-02T11:51:16.058Z,57.14
2022-11-02T11:52:16.025Z,57.32
2022-11-02T11:53:16.023Z,57.37
2022-11-02T11:54:16.000Z,57.58
2022-11-02T11:55:16.001Z,57.76
2022-11-02T11:56:15.995Z,57.93
2022-11-02T11:57:15.977Z,58.23
2022-11-02T11:58:15.951Z,58.29
2022-11-02T11:59:15.958Z,58.46
2022-11-02T12:00:15.985Z,58.42
2022-11-02T12:01:15.992Z,58.47
2022-11-02T12:02:16.121Z,58.59
2022-11-02T12:03:16.020Z,58.74
2022-11-02T12:04:15.874Z,58.81
2022-11-02T12:05:15.866Z,58.99
2022-11-02T12:06:15.841Z,59.03
2022-11-02T12:07:15.841Z,58.97
2022-11-02T12:08:15.823Z,59.01
2022-11-02T12:09:15.791Z,59.10
2022-11-02T12:10:15.785Z,59.23
2022-11-02T12:11:19.016Z,59.06
2022-11-02T12:12:15.777Z,59.18
2022-11-02T12:13:15.751Z,58.97
2022-11-02T12:14:15.766Z,59.07
2022-11-02T12:15:15.714Z,59.21
2022-11-02T12:16:15.731Z,59.28
2022-11-02T12:17:15.717Z,59.34
2022-11-02T12:18:15.693Z,59.41
2022-11-02T12:19:15.826Z,59.38
2022-11-02T12:20:15.680Z,59.40
2022-11-02T12:21:15.662Z,59.55
2022-11-02T12:22:15.643Z,59.60
2022-11-02T12:23:15.650Z,59.71
2022-11-02T12:24:15.610Z,59.56
2022-11-02T12:25:15.591Z,59.88
2022-11-02T12:26:15.601Z,59.70
2022-11-02T12:27:15.553Z,59.82
2022-11-02T12:28:15.564Z,59.85
2022-11-02T12:29:15.539Z,59.80
2022-11-02T12:30:15.544Z,59.80
2022-11-02T12:31:15.534Z,59.79
2022-11-02T12:32:15.508Z,59.78
2022-11-02T12:33:15.482Z,59.88
2022-11-02T12:34:15.469Z,59.97
2022-11-02T12:35:28.527Z,59.82
2022-11-02T12:36:15.456Z,59.92
2022-11-02T12:37:35.757Z,59.71
2022-11-02T12:38:15.428Z,59.70
2022-11-02T12:39:15.413Z,59.84
2022-11-02T12:40:15.600Z,60.06
2022-11-02T12:41:15.397Z,60.20
2022-11-02T12:42:15.358Z,60.10
2022-11-02T12:43:15.340Z,60.24
2022-11-02T12:44:15.362Z,60.32
2022-11-02T12:45:15.336Z,60.32
2022-11-02T12:46:15.305Z,60.24
2022-11-02T12:47:15.300Z,60.23
2022-11-02T12:48:15.282Z,60.06
2022-11-02T12:49:15.287Z,60.20
2022-11-02T12:50:15.268Z,60.33
2022-11-02T12:51:15.255Z,60.20
2022-11-02T12:52:15.218Z,60.27
2022-11-02T12:53:15.207Z,60.09
2022-11-02T12:54:15.185Z,60.16
2022-11-02T12:55:17.188Z,60.20
2022-11-02T12:56:15.173Z,60.29
2022-11-02T12:57:15.164Z,59.98
2022-11-02T12:58:15.146Z,59.75
2022-11-02T12:59:15.139Z,59.92
2022-11-02T13:00:15.119Z,59.77
2022-11-02T13:01:15.305Z,59.88
2022-11-02T13:02:15.106Z,59.98